sensor_id;sensor_type;location;lat;lon;timestamp;pressure;altitude;pressure_sealevel;temperature;humidity
63439;BME280;49567;48.958;8.294;2022-10-20T00:01:22;100611.66;;;15.32;79.88
63439;BME280;49567;48.958;8.294;2022-10-20T00:03:48;100616.31;;;15.36;79.97
63439;BME280;49567;48.958;8.294;2022-10-20T00:06:17;100609.75;;;15.37;79.79
63439;BME280;49567;48.958;8.294;2022-10-20T00:08:46;100603.47;;;15.37;79.87
63439;BME280;49567;48.958;8.294;2022-10-20T00:11:13;100599.09;;;15.36;79.69
63439;BME280;49567;48.958;8.294;2022-10-20T00:13:40;100598.00;;;15.32;79.60
63439;BME280;49567;48.958;8.294;2022-10-20T00:16:06;100600.72;;;15.27;79.54
63439;BME280;49567;48.958;8.294;2022-10-20T00:18:32;100607.81;;;15.23;79.89
63439;BME280;49567;48.958;8.294;2022-10-20T00:20:58;100598.00;;;15.17;79.85
63439;BME280;49567;48.958;8.294;2022-10-20T00:23:23;100597.69;;;15.18;79.61
63439;BME280;49567;48.958;8.294;2022-10-20T00:25:59;100588.19;;;15.21;79.49
63439;BME280;49567;48.958;8.294;2022-10-20T00:28:25;100575.63;;;15.15;79.71
63439;BME280;49567;48.958;8.294;2022-10-20T00:30:53;100569.63;;;15.18;79.57
63439;BME280;49567;48.958;8.294;2022-10-20T00:33:19;100565.22;;;15.17;79.48
63439;BME280;49567;48.958;8.294;2022-10-20T00:35:44;100562.22;;;15.18;79.59
63439;BME280;49567;48.958;8.294;2022-10-20T00:38:09;100553.22;;;15.18;79.52
63439;BME280;49567;48.958;8.294;2022-10-20T00:40:34;100556.75;;;15.18;79.47
63439;BME280;49567;48.958;8.294;2022-10-20T00:43:00;100551.06;;;15.15;79.52
63439;BME280;49567;48.958;8.294;2022-10-20T00:45:25;100554.88;;;15.14;79.51
63439;BME280;49567;48.958;8.294;2022-10-20T00:48:06;100547.22;;;15.16;79.29
63439;BME280;49567;48.958;8.294;2022-10-20T00:50:38;100540.13;;;15.15;79.37
63439;BME280;49567;48.958;8.294;2022-10-20T00:53:06;100549.13;;;15.15;79.56
63439;BME280;49567;48.958;8.294;2022-10-20T00:55:33;100538.19;;;15.15;79.33
63439;BME280;49567;48.958;8.294;2022-10-20T00:58:00;100536.28;;;15.16;79.34
63439;BME280;49567;48.958;8.294;2022-10-20T01:00:26;100542.03;;;15.14;79.24
63439;BME280;49567;48.958;8.294;2022-10-20T01:02:54;100539.31;;;15.14;79.10
63439;BME280;49567;48.958;8.294;2022-10-20T01:05:20;100534.94;;;15.13;79.44
63439;BME280;49567;48.958;8.294;2022-10-20T01:07:46;100521.00;;;15.10;79.39
63439;BME280;49567;48.958;8.294;2022-10-20T01:10:12;100518.81;;;15.06;79.21
63439;BME280;49567;48.958;8.294;2022-10-20T01:15:26;100518.00;;;15.01;79.20
63439;BME280;49567;48.958;8.294;2022-10-20T01:26:23;100502.72;;;14.90;79.36
63439;BME280;49567;48.958;8.294;2022-10-20T01:28:58;100502.47;;;14.91;79.60
63439;BME280;49567;48.958;8.294;2022-10-20T01:42:16;100486.88;;;14.77;79.83
63439;BME280;49567;48.958;8.294;2022-10-20T01:44:44;100483.06;;;14.78;79.89
63439;BME280;49567;48.958;8.294;2022-10-20T01:47:13;100488.78;;;14.76;79.57
63439;BME280;49567;48.958;8.294;2022-10-20T01:49:45;100482.25;;;14.77;79.70
63439;BME280;49567;48.958;8.294;2022-10-20T01:52:12;100487.72;;;14.77;79.56
63439;BME280;49567;48.958;8.294;2022-10-20T01:54:37;100487.16;;;14.75;79.88
63439;BME280;49567;48.958;8.294;2022-10-20T01:57:15;100483.63;;;14.75;79.82
63439;BME280;49567;48.958;8.294;2022-10-20T02:08:11;100472.69;;;14.65;79.77
63439;BME280;49567;48.958;8.294;2022-10-20T02:10:43;100472.69;;;14.65;79.94
63439;BME280;49567;48.958;8.294;2022-10-20T02:13:10;100473.53;;;14.65;79.70
63439;BME280;49567;48.958;8.294;2022-10-20T02:15:38;100470.78;;;14.60;79.89
63439;BME280;49567;48.958;8.294;2022-10-20T02:18:06;100474.31;;;14.61;79.92
63439;BME280;49567;48.958;8.294;2022-10-20T02:20:33;100473.50;;;14.60;79.79
63439;BME280;49567;48.958;8.294;2022-10-20T02:22:59;100467.50;;;14.58;79.88
63439;BME280;49567;48.958;8.294;2022-10-20T02:25:27;100468.88;;;14.61;79.81
63439;BME280;49567;48.958;8.294;2022-10-20T02:27:54;100474.31;;;14.61;79.84
63439;BME280;49567;48.958;8.294;2022-10-20T02:30:21;100470.50;;;14.62;79.79
63439;BME280;49567;48.958;8.294;2022-10-20T02:32:49;100464.25;;;14.61;79.76
63439;BME280;49567;48.958;8.294;2022-10-20T02:35:19;100459.59;;;14.62;79.75
63439;BME280;49567;48.958;8.294;2022-10-20T02:37:46;100464.53;;;14.65;79.69
63439;BME280;49567;48.958;8.294;2022-10-20T02:40:12;100456.88;;;14.67;79.74
63439;BME280;49567;48.958;8.294;2022-10-20T02:42:37;100456.34;;;14.65;79.67
63439;BME280;49567;48.958;8.294;2022-10-20T02:45:05;100456.34;;;14.65;79.93
63439;BME280;49567;48.958;8.294;2022-10-20T02:47:31;100456.34;;;14.65;80.06
63439;BME280;49567;48.958;8.294;2022-10-20T02:49:56;100459.31;;;14.63;80.07
63439;BME280;49567;48.958;8.294;2022-10-20T02:52:21;100468.59;;;14.62;79.93
63439;BME280;49567;48.958;8.294;2022-10-20T02:54:47;100472.41;;;14.61;79.85
63439;BME280;49567;48.958;8.294;2022-10-20T02:57:12;100463.69;;;14.54;79.71
63439;BME280;49567;48.958;8.294;2022-10-20T02:59:37;100473.50;;;14.55;79.88
63439;BME280;49567;48.958;8.294;2022-10-20T03:02:03;100466.94;;;14.56;79.96
63439;BME280;49567;48.958;8.294;2022-10-20T03:04:28;100468.06;;;14.55;79.80
63439;BME280;49567;48.958;8.294;2022-10-20T03:06:53;100460.41;;;14.52;80.15
63439;BME280;49567;48.958;8.294;2022-10-20T03:09:19;100453.31;;;14.51;80.26
63439;BME280;49567;48.958;8.294;2022-10-20T03:11:44;100456.88;;;14.51;80.44
63439;BME280;49567;48.958;8.294;2022-10-20T03:14:10;100459.31;;;14.53;80.21
63439;BME280;49567;48.958;8.294;2022-10-20T03:16:35;100457.94;;;14.55;80.37
63439;BME280;49567;48.958;8.294;2022-10-20T03:19:00;100460.94;;;14.54;80.11
63439;BME280;49567;48.958;8.294;2022-10-20T03:21:25;100462.84;;;14.53;80.18
63439;BME280;49567;48.958;8.294;2022-10-20T03:23:51;100467.50;;;14.48;80.55
63439;BME280;49567;48.958;8.294;2022-10-20T03:26:16;100466.66;;;14.47;80.32
63439;BME280;49567;48.958;8.294;2022-10-20T03:28:41;100466.66;;;14.52;80.01
63439;BME280;49567;48.958;8.294;2022-10-20T03:31:07;100465.31;;;14.55;79.86
63439;BME280;49567;48.958;8.294;2022-10-20T03:33:33;100463.41;;;14.55;80.17
63439;BME280;49567;48.958;8.294;2022-10-20T03:35:58;100465.03;;;14.57;80.07
63439;BME280;49567;48.958;8.294;2022-10-20T03:38:24;100460.16;;;14.59;79.81
63439;BME280;49567;48.958;8.294;2022-10-20T03:40:50;100453.59;;;14.60;79.71
63439;BME280;49567;48.958;8.294;2022-10-20T03:43:15;100451.13;;;14.63;79.56
63439;BME280;49567;48.958;8.294;2022-10-20T03:45:41;100457.41;;;14.64;79.24
63439;BME280;49567;48.958;8.294;2022-10-20T03:48:07;100445.44;;;14.65;79.71
63439;BME280;49567;48.958;8.294;2022-10-20T03:50:33;100441.88;;;14.64;79.73
63439;BME280;49567;48.958;8.294;2022-10-20T03:52:58;100434.25;;;14.61;79.72
63439;BME280;49567;48.958;8.294;2022-10-20T03:55:23;100427.97;;;14.61;79.64
63439;BME280;49567;48.958;8.294;2022-10-20T03:57:48;100423.59;;;14.60;80.08
63439;BME280;49567;48.958;8.294;2022-10-20T04:00:14;100410.78;;;14.60;79.83
63439;BME280;49567;48.958;8.294;2022-10-20T04:02:41;100409.13;;;14.59;80.19
63439;BME280;49567;48.958;8.294;2022-10-20T04:05:09;100424.41;;;14.60;79.82
63439;BME280;49567;48.958;8.294;2022-10-20T04:07:35;100412.97;;;14.58;79.90
63439;BME280;49567;48.958;8.294;2022-10-20T04:10:00;100416.22;;;14.50;80.34
63439;BME280;49567;48.958;8.294;2022-10-20T04:12:26;100405.03;;;14.46;80.31
63439;BME280;49567;48.958;8.294;2022-10-20T04:14:52;100414.31;;;14.50;79.98
63439;BME280;49567;48.958;8.294;2022-10-20T04:17:17;100421.13;;;14.53;79.85
63439;BME280;49567;48.958;8.294;2022-10-20T04:19:43;100419.22;;;14.53;79.84
63439;BME280;49567;48.958;8.294;2022-10-20T04:22:08;100414.56;;;14.49;79.81
63439;BME280;49567;48.958;8.294;2022-10-20T04:24:33;100420.84;;;14.49;79.74
63439;BME280;49567;48.958;8.294;2022-10-20T04:26:59;100418.41;;;14.48;79.16
63439;BME280;49567;48.958;8.294;2022-10-20T04:29:24;100414.03;;;14.47;79.13
63439;BME280;49567;48.958;8.294;2022-10-20T04:31:49;100428.22;;;14.39;79.43
63439;BME280;49567;48.958;8.294;2022-10-20T04:34:15;100419.47;;;14.37;79.70
63439;BME280;49567;48.958;8.294;2022-10-20T04:36:40;100411.88;;;14.39;79.50
63439;BME280;49567;48.958;8.294;2022-10-20T04:39:06;100423.03;;;14.37;79.58
63439;BME280;49567;48.958;8.294;2022-10-20T04:41:32;100410.47;;;14.36;79.83
63439;BME280;49567;48.958;8.294;2022-10-20T04:43:57;100407.50;;;14.38;79.85
63439;BME280;49567;48.958;8.294;2022-10-20T04:46:23;100400.41;;;14.37;79.75
63439;BME280;49567;48.958;8.294;2022-10-20T04:48:48;100404.75;;;14.38;79.92
63439;BME280;49567;48.958;8.294;2022-10-20T04:51:14;100402.03;;;14.38;79.59
63439;BME280;49567;48.958;8.294;2022-10-20T04:53:40;100393.28;;;14.36;79.64
63439;BME280;49567;48.958;8.294;2022-10-20T04:56:09;100401.75;;;14.34;79.70
63439;BME280;49567;48.958;8.294;2022-10-20T04:58:35;100401.19;;;14.32;79.67
63439;BME280;49567;48.958;8.294;2022-10-20T05:01:06;100399.81;;;14.30;79.98
63439;BME280;49567;48.958;8.294;2022-10-20T05:03:32;100383.75;;;14.28;79.74
63439;BME280;49567;48.958;8.294;2022-10-20T05:06:30;100387.28;;;14.29;79.84
63439;BME280;49567;48.958;8.294;2022-10-20T05:08:59;100382.09;;;14.27;79.90
63439;BME280;49567;48.958;8.294;2022-10-20T05:11:27;100371.19;;;14.27;79.66
63439;BME280;49567;48.958;8.294;2022-10-20T05:13:53;100364.66;;;14.28;79.75
63439;BME280;49567;48.958;8.294;2022-10-20T05:16:18;100357.31;;;14.29;79.67
63439;BME280;49567;48.958;8.294;2022-10-20T05:18:45;100352.41;;;14.26;79.83
63439;BME280;49567;48.958;8.294;2022-10-20T05:21:13;100361.38;;;14.21;79.84
63439;BME280;49567;48.958;8.294;2022-10-20T05:23:40;100354.53;;;14.14;79.72
63439;BME280;49567;48.958;8.294;2022-10-20T05:26:08;100356.16;;;14.10;80.30
63439;BME280;49567;48.958;8.294;2022-10-20T05:28:34;100361.91;;;14.13;80.03
63439;BME280;49567;48.958;8.294;2022-10-20T05:31:00;100358.63;;;14.06;79.79
63439;BME280;49567;48.958;8.294;2022-10-20T05:33:26;100367.06;;;14.04;79.72
63439;BME280;49567;48.958;8.294;2022-10-20T05:35:52;100366.25;;;14.04;80.00
63439;BME280;49567;48.958;8.294;2022-10-20T05:38:17;100359.72;;;14.05;79.80
63439;BME280;49567;48.958;8.294;2022-10-20T05:40:42;100359.16;;;14.03;80.14
63439;BME280;49567;48.958;8.294;2022-10-20T05:43:08;100356.72;;;14.07;79.80
63439;BME280;49567;48.958;8.294;2022-10-20T05:45:33;100366.28;;;14.09;79.80
63439;BME280;49567;48.958;8.294;2022-10-20T05:47:58;100367.88;;;14.10;79.84
63439;BME280;49567;48.958;8.294;2022-10-20T05:50:23;100370.91;;;14.09;79.90
63439;BME280;49567;48.958;8.294;2022-10-20T05:52:49;100379.31;;;14.07;79.61
63439;BME280;49567;48.958;8.294;2022-10-20T05:55:14;100380.69;;;14.04;79.70
63439;BME280;49567;48.958;8.294;2022-10-20T05:57:42;100383.16;;;14.06;79.84
63439;BME280;49567;48.958;8.294;2022-10-20T06:00:08;100377.16;;;14.04;79.65
63439;BME280;49567;48.958;8.294;2022-10-20T06:02:33;100375.50;;;14.03;79.85
63439;BME280;49567;48.958;8.294;2022-10-20T06:04:59;100375.22;;;13.99;79.92
63439;BME280;49567;48.958;8.294;2022-10-20T06:07:24;100382.56;;;13.94;80.25
63439;BME280;49567;48.958;8.294;2022-10-20T06:09:49;100380.38;;;13.91;80.25
63439;BME280;49567;48.958;8.294;2022-10-20T06:12:15;100390.50;;;13.95;80.04
63439;BME280;49567;48.958;8.294;2022-10-20T06:14:40;100411.47;;;13.95;79.86
63439;BME280;49567;48.958;8.294;2022-10-20T06:17:05;100405.44;;;13.93;79.87
63439;BME280;49567;48.958;8.294;2022-10-20T06:19:30;100400.56;;;13.95;79.98
63439;BME280;49567;48.958;8.294;2022-10-20T06:21:56;100395.69;;;14.02;79.75
63439;BME280;49567;48.958;8.294;2022-10-20T06:24:21;100405.75;;;14.07;79.47
63439;BME280;49567;48.958;8.294;2022-10-20T06:26:46;100404.09;;;14.00;79.57
63439;BME280;49567;48.958;8.294;2022-10-20T06:29:14;100407.13;;;14.04;79.06
63439;BME280;49567;48.958;8.294;2022-10-20T06:31:42;100404.69;;;14.02;79.56
63439;BME280;49567;48.958;8.294;2022-10-20T06:34:10;100394.56;;;14.03;79.45
63439;BME280;49567;48.958;8.294;2022-10-20T06:36:38;100391.84;;;14.03;79.12
63439;BME280;49567;48.958;8.294;2022-10-20T06:39:05;100401.13;;;14.07;79.39
63439;BME280;49567;48.958;8.294;2022-10-20T06:41:32;100420.19;;;14.07;79.31
63439;BME280;49567;48.958;8.294;2022-10-20T06:43:58;100414.22;;;14.05;79.01
63439;BME280;49567;48.958;8.294;2022-10-20T06:46:26;100423.22;;;14.06;79.34
63439;BME280;49567;48.958;8.294;2022-10-20T06:48:52;100431.13;;;14.12;78.94
63439;BME280;49567;48.958;8.294;2022-10-20T06:51:18;100435.47;;;14.13;78.88
63439;BME280;49567;48.958;8.294;2022-10-20T06:53:46;100424.03;;;14.16;78.53
63439;BME280;49567;48.958;8.294;2022-10-20T06:56:19;100427.03;;;14.20;78.59
63439;BME280;49567;48.958;8.294;2022-10-20T06:58:47;100434.97;;;14.21;79.03
63439;BME280;49567;48.958;8.294;2022-10-20T07:01:15;100428.44;;;14.27;78.56
63439;BME280;49567;48.958;8.294;2022-10-20T07:03:42;100432.22;;;14.26;78.52
63439;BME280;49567;48.958;8.294;2022-10-20T07:06:11;100418.88;;;14.20;78.96
63439;BME280;49567;48.958;8.294;2022-10-20T07:08:37;100417.25;;;14.24;78.79
63439;BME280;49567;48.958;8.294;2022-10-20T07:13:33;100419.19;;;14.33;78.53
63439;BME280;49567;48.958;8.294;2022-10-20T07:15:58;100409.94;;;14.34;78.35
63439;BME280;49567;48.958;8.294;2022-10-20T07:18:26;100417.84;;;14.36;78.83
63439;BME280;49567;48.958;8.294;2022-10-20T07:20:58;100411.31;;;14.42;78.26
63439;BME280;49567;48.958;8.294;2022-10-20T07:23:25;100407.22;;;14.49;78.41
63439;BME280;49567;48.958;8.294;2022-10-20T07:25:51;100413.78;;;14.53;78.18
63439;BME280;49567;48.958;8.294;2022-10-20T07:28:16;100425.22;;;14.55;78.15
63439;BME280;49567;48.958;8.294;2022-10-20T07:30:42;100420.59;;;14.56;78.29
63439;BME280;49567;48.958;8.294;2022-10-20T07:33:08;100414.03;;;14.57;78.32
63439;BME280;49567;48.958;8.294;2022-10-20T07:35:34;100422.50;;;14.61;78.30
63439;BME280;49567;48.958;8.294;2022-10-20T07:38:00;100414.03;;;14.62;78.18
63439;BME280;49567;48.958;8.294;2022-10-20T07:40:25;100424.44;;;14.65;78.30
63439;BME280;49567;48.958;8.294;2022-10-20T07:42:52;100423.31;;;14.66;78.24
63439;BME280;49567;48.958;8.294;2022-10-20T07:45:17;100436.41;;;14.59;78.58
63439;BME280;49567;48.958;8.294;2022-10-20T07:47:42;100432.31;;;14.51;78.90
63439;BME280;49567;48.958;8.294;2022-10-20T07:50:08;100424.13;;;14.51;79.26
63439;BME280;49567;48.958;8.294;2022-10-20T07:52:34;100407.50;;;14.58;78.87
63439;BME280;49567;48.958;8.294;2022-10-20T07:54:59;100408.59;;;14.67;78.79
63439;BME280;49567;48.958;8.294;2022-10-20T07:57:24;100415.97;;;14.72;78.29
63439;BME280;49567;48.958;8.294;2022-10-20T07:59:49;100419.78;;;14.76;78.59
63439;BME280;49567;48.958;8.294;2022-10-20T08:02:15;100428.50;;;14.78;78.40
63439;BME280;49567;48.958;8.294;2022-10-20T08:04:41;100427.94;;;14.76;78.62
63439;BME280;49567;48.958;8.294;2022-10-20T08:07:09;100427.13;;;14.75;78.37
63439;BME280;49567;48.958;8.294;2022-10-20T08:09:34;100426.59;;;14.73;78.33
63439;BME280;49567;48.958;8.294;2022-10-20T08:11:59;100428.50;;;14.73;78.49
63439;BME280;49567;48.958;8.294;2022-10-20T08:14:25;100424.41;;;14.75;78.04
63439;BME280;49567;48.958;8.294;2022-10-20T08:16:56;100427.97;;;14.81;77.90
63439;BME280;49567;48.958;8.294;2022-10-20T08:19:21;100424.16;;;14.82;78.02
63439;BME280;49567;48.958;8.294;2022-10-20T08:21:46;100429.84;;;14.85;78.26
63439;BME280;49567;48.958;8.294;2022-10-20T08:24:11;100438.59;;;14.92;78.42
63439;BME280;49567;48.958;8.294;2022-10-20T08:26:37;100433.69;;;14.94;78.18
63439;BME280;49567;48.958;8.294;2022-10-20T08:29:02;100440.50;;;15.07;78.18
63439;BME280;49567;48.958;8.294;2022-10-20T08:31:27;100462.06;;;15.14;77.94
63439;BME280;49567;48.958;8.294;2022-10-20T08:33:52;100483.88;;;15.24;77.59
63439;BME280;49567;48.958;8.294;2022-10-20T08:36:18;100488.25;;;15.20;77.66
63439;BME280;49567;48.958;8.294;2022-10-20T08:38:43;100489.91;;;15.21;78.01
63439;BME280;49567;48.958;8.294;2022-10-20T08:41:20;100487.94;;;15.31;77.48
63439;BME280;49567;48.958;8.294;2022-10-20T08:43:48;100485.22;;;15.36;77.05
63439;BME280;49567;48.958;8.294;2022-10-20T08:46:16;100489.03;;;15.45;77.09
63439;BME280;49567;48.958;8.294;2022-10-20T08:48:43;100484.13;;;15.47;77.01
63439;BME280;49567;48.958;8.294;2022-10-20T08:51:21;100486.31;;;15.61;76.26
63439;BME280;49567;48.958;8.294;2022-10-20T08:53:49;100482.72;;;15.70;76.04
63439;BME280;49567;48.958;8.294;2022-10-20T08:56:19;100490.63;;;15.72;75.63
63439;BME280;49567;48.958;8.294;2022-10-20T08:58:46;100485.16;;;15.77;75.99
63439;BME280;49567;48.958;8.294;2022-10-20T09:01:21;100484.88;;;15.78;75.55
63439;BME280;49567;48.958;8.294;2022-10-20T09:03:58;100487.06;;;15.76;75.54
63439;BME280;49567;48.958;8.294;2022-10-20T09:06:26;100484.06;;;15.73;75.60
63439;BME280;49567;48.958;8.294;2022-10-20T09:08:53;100481.06;;;15.79;75.41
63439;BME280;49567;48.958;8.294;2022-10-20T09:11:24;100473.13;;;15.83;75.37
63439;BME280;49567;48.958;8.294;2022-10-20T09:13:52;100467.66;;;15.83;75.43
63439;BME280;49567;48.958;8.294;2022-10-20T09:16:32;100469.81;;;15.86;75.23
63439;BME280;49567;48.958;8.294;2022-10-20T09:19:03;100478.28;;;15.89;74.98
63439;BME280;49567;48.958;8.294;2022-10-20T09:21:29;100476.63;;;15.93;75.09
63439;BME280;49567;48.958;8.294;2022-10-20T09:24:01;100473.03;;;15.98;74.65
63439;BME280;49567;48.958;8.294;2022-10-20T09:29:07;100461.50;;;16.11;74.32
63439;BME280;49567;48.958;8.294;2022-10-20T09:31:36;100462.59;;;16.15;74.07
63439;BME280;49567;48.958;8.294;2022-10-20T09:34:28;100476.50;;;16.14;74.44
63439;BME280;49567;48.958;8.294;2022-10-20T09:37:11;100478.16;;;16.20;74.26
63439;BME280;49567;48.958;8.294;2022-10-20T09:42:22;100460.06;;;16.24;74.04
63439;BME280;49567;48.958;8.294;2022-10-20T09:44:58;100469.03;;;16.34;73.87
63439;BME280;49567;48.958;8.294;2022-10-20T09:47:26;100477.78;;;16.36;74.04
63439;BME280;49567;48.958;8.294;2022-10-20T09:50:04;100472.53;;;16.45;73.88
63439;BME280;49567;48.958;8.294;2022-10-20T09:52:32;100469.22;;;16.53;73.33
63439;BME280;49567;48.958;8.294;2022-10-20T09:55:18;100476.28;;;16.54;73.06
63439;BME280;49567;48.958;8.294;2022-10-20T09:57:47;100477.66;;;16.62;72.73
63439;BME280;49567;48.958;8.294;2022-10-20T10:00:30;100474.94;;;16.56;73.06
63439;BME280;49567;48.958;8.294;2022-10-20T10:05:35;100453.44;;;16.40;73.71
63439;BME280;49567;48.958;8.294;2022-10-20T10:08:01;100449.75;;;16.54;73.46
63439;BME280;49567;48.958;8.294;2022-10-20T10:10:30;100454.34;;;16.69;73.31
63439;BME280;49567;48.958;8.294;2022-10-20T10:12:57;100455.72;;;16.67;73.14
63439;BME280;49567;48.958;8.294;2022-10-20T10:15:30;100442.94;;;16.57;73.24
63439;BME280;49567;48.958;8.294;2022-10-20T10:17:57;100430.16;;;16.37;73.64
63439;BME280;49567;48.958;8.294;2022-10-20T10:20:32;100432.19;;;16.22;74.23
63439;BME280;49567;48.958;8.294;2022-10-20T10:23:20;100412.84;;;16.13;74.85
63439;BME280;49567;48.958;8.294;2022-10-20T10:25:47;100417.53;;;16.02;75.23
63439;BME280;49567;48.958;8.294;2022-10-20T10:28:26;100424.72;;;15.88;75.76
63439;BME280;49567;48.958;8.294;2022-10-20T10:31:19;100451.75;;;15.95;75.42
63439;BME280;49567;48.958;8.294;2022-10-20T10:33:46;100459.69;;;15.96;76.03
63439;BME280;49567;48.958;8.294;2022-10-20T10:36:37;100463.47;;;16.00;76.16
63439;BME280;49567;48.958;8.294;2022-10-20T10:39:14;100459.38;;;16.03;76.66
63439;BME280;49567;48.958;8.294;2022-10-20T10:50:28;100438.09;;;16.39;75.46
63439;BME280;49567;48.958;8.294;2022-10-20T10:53:19;100417.31;;;16.38;75.80
63439;BME280;49567;48.958;8.294;2022-10-20T10:56:11;100415.16;;;16.35;76.21
63439;BME280;49567;48.958;8.294;2022-10-20T10:58:56;100424.44;;;16.34;76.30
63439;BME280;49567;48.958;8.294;2022-10-20T11:01:34;100395.50;;;16.28;76.24
63439;BME280;49567;48.958;8.294;2022-10-20T11:07:08;100397.47;;;16.17;76.47
63439;BME280;49567;48.958;8.294;2022-10-20T11:10:07;100397.78;;;16.16;76.57
63439;BME280;49567;48.958;8.294;2022-10-20T11:13:10;100390.88;;;16.28;76.42
63439;BME280;49567;48.958;8.294;2022-10-20T11:18:13;100403.56;;;16.48;75.74
63439;BME280;49567;48.958;8.294;2022-10-20T11:23:45;100409.03;;;16.48;75.94
63439;BME280;49567;48.958;8.294;2022-10-20T11:26:46;100411.47;;;16.59;75.61
63439;BME280;49567;48.958;8.294;2022-10-20T11:29:46;100414.16;;;16.65;75.36
63439;BME280;49567;48.958;8.294;2022-10-20T11:37:55;100394.72;;;16.66;75.56
63439;BME280;49567;48.958;8.294;2022-10-20T11:40:26;100399.97;;;16.57;75.70
63439;BME280;49567;48.958;8.294;2022-10-20T11:43:16;100397.25;;;16.52;75.87
63439;BME280;49567;48.958;8.294;2022-10-20T11:45:54;100389.06;;;16.47;76.32
63439;BME280;49567;48.958;8.294;2022-10-20T11:48:25;100383.91;;;16.46;76.20
63439;BME280;49567;48.958;8.294;2022-10-20T12:01:53;100383.28;;;16.54;76.01
63439;BME280;49567;48.958;8.294;2022-10-20T12:04:34;100369.59;;;16.54;75.92
63439;BME280;49567;48.958;8.294;2022-10-20T12:07:18;100368.78;;;16.53;75.93
63439;BME280;49567;48.958;8.294;2022-10-20T12:13:03;100371.84;;;16.47;76.49
63439;BME280;49567;48.958;8.294;2022-10-20T12:15:31;100364.22;;;16.44;76.73
63439;BME280;49567;48.958;8.294;2022-10-20T12:18:04;100365.78;;;16.50;76.66
63439;BME280;49567;48.958;8.294;2022-10-20T12:23:02;100353.69;;;16.66;76.11
63439;BME280;49567;48.958;8.294;2022-10-20T12:25:39;100348.22;;;16.66;76.23
63439;BME280;49567;48.958;8.294;2022-10-20T12:31:04;100342.19;;;16.64;76.41
63439;BME280;49567;48.958;8.294;2022-10-20T12:38:45;100322.31;;;16.82;75.88
63439;BME280;49567;48.958;8.294;2022-10-20T12:41:24;100310.72;;;16.90;75.73
63439;BME280;49567;48.958;8.294;2022-10-20T12:43:52;100306.06;;;16.91;75.92
63439;BME280;49567;48.958;8.294;2022-10-20T12:46:21;100293.22;;;16.91;75.87
63439;BME280;49567;48.958;8.294;2022-10-20T12:48:52;100277.88;;;16.90;75.86
63439;BME280;49567;48.958;8.294;2022-10-20T12:51:50;100290.75;;;16.90;75.84
63439;BME280;49567;48.958;8.294;2022-10-20T12:54:36;100296.75;;;16.92;75.68
63439;BME280;49567;48.958;8.294;2022-10-20T12:59:55;100293.81;;;16.83;75.93
63439;BME280;49567;48.958;8.294;2022-10-20T13:04:58;100320.63;;;16.86;75.97
63439;BME280;49567;48.958;8.294;2022-10-20T13:12:52;100318.69;;;16.87;76.32
63439;BME280;49567;48.958;8.294;2022-10-20T13:21:00;100320.34;;;16.88;76.53
63439;BME280;49567;48.958;8.294;2022-10-20T13:23:45;100319.25;;;16.89;76.42
63439;BME280;49567;48.958;8.294;2022-10-20T13:26:30;100321.97;;;16.89;76.50
63439;BME280;49567;48.958;8.294;2022-10-20T13:28:58;100323.06;;;16.88;76.85
63439;BME280;49567;48.958;8.294;2022-10-20T13:31:32;100321.63;;;16.95;76.60
63439;BME280;49567;48.958;8.294;2022-10-20T13:36:52;100337.00;;;16.91;76.57
63439;BME280;49567;48.958;8.294;2022-10-20T13:47:47;100331.31;;;16.83;77.32
63439;BME280;49567;48.958;8.294;2022-10-20T13:50:22;100321.97;;;16.89;77.27
63439;BME280;49567;48.958;8.294;2022-10-20T13:52:55;100321.69;;;16.90;77.00
63439;BME280;49567;48.958;8.294;2022-10-20T13:55:28;100324.41;;;16.90;77.12
63439;BME280;49567;48.958;8.294;2022-10-20T13:57:56;100319.47;;;16.92;77.17
63439;BME280;49567;48.958;8.294;2022-10-20T14:00:29;100317.53;;;16.93;77.32
63439;BME280;49567;48.958;8.294;2022-10-20T14:03:00;100319.19;;;16.94;77.11
63439;BME280;49567;48.958;8.294;2022-10-20T14:05:28;100316.75;;;16.92;77.07
63439;BME280;49567;48.958;8.294;2022-10-20T14:07:59;100316.19;;;16.90;77.34
63439;BME280;49567;48.958;8.294;2022-10-20T14:10:59;100300.00;;;16.94;77.09
63439;BME280;49567;48.958;8.294;2022-10-20T14:13:30;100286.63;;;16.92;77.17
63439;BME280;49567;48.958;8.294;2022-10-20T14:15:59;100292.38;;;16.91;77.23
63439;BME280;49567;48.958;8.294;2022-10-20T14:20:59;100284.44;;;16.89;77.65
63439;BME280;49567;48.958;8.294;2022-10-20T14:23:28;100276.25;;;16.89;77.33
63439;BME280;49567;48.958;8.294;2022-10-20T14:25:56;100280.94;;;16.89;77.36
63439;BME280;49567;48.958;8.294;2022-10-20T14:28:23;100278.44;;;16.92;77.49
63439;BME280;49567;48.958;8.294;2022-10-20T14:30:50;100270.72;;;16.94;77.34
63439;BME280;49567;48.958;8.294;2022-10-20T14:33:16;100266.34;;;16.93;77.31
63439;BME280;49567;48.958;8.294;2022-10-20T14:35:50;100267.16;;;16.94;77.41
63439;BME280;49567;48.958;8.294;2022-10-20T14:38:22;100264.94;;;16.96;77.18
63439;BME280;49567;48.958;8.294;2022-10-20T14:40:56;100255.63;;;16.97;77.42
63439;BME280;49567;48.958;8.294;2022-10-20T14:43:44;100256.19;;;16.99;77.46
63439;BME280;49567;48.958;8.294;2022-10-20T14:46:25;100248.81;;;16.94;77.53
63439;BME280;49567;48.958;8.294;2022-10-20T14:49:02;100248.00;;;16.94;77.84
63439;BME280;49567;48.958;8.294;2022-10-20T14:51:38;100255.41;;;16.93;77.78
63439;BME280;49567;48.958;8.294;2022-10-20T14:56:50;100254.88;;;16.91;78.17
63439;BME280;49567;48.958;8.294;2022-10-20T14:59:27;100265.00;;;16.91;78.33
63439;BME280;49567;48.958;8.294;2022-10-20T15:01:56;100274.31;;;16.90;78.38
63439;BME280;49567;48.958;8.294;2022-10-20T15:04:26;100282.03;;;16.88;78.36